createdAt,value
2023-04-20T00:04:50.763Z,8.10
2023-04-20T00:10:54.179Z,5.35
2023-04-20T00:16:59.334Z,7.03
2023-04-20T00:23:02.841Z,5.53
2023-04-20T00:29:06.443Z,5.18
2023-04-20T00:35:11.711Z,5.72
2023-04-20T00:41:15.553Z,6.40
2023-04-20T00:47:19.077Z,4.40
2023-04-20T00:53:23.987Z,6.55
2023-04-20T00:59:27.559Z,5.63
2023-04-20T01:05:31.013Z,5.00
2023-04-20T01:11:36.180Z,5.35
2023-04-20T01:17:40.352Z,5.95
2023-04-20T01:23:45.580Z,4.43
2023-04-20T01:29:49.072Z,4.03
2023-04-20T01:35:53.969Z,7.07
2023-04-20T01:41:58.845Z,7.00
2023-04-20T01:48:03.071Z,6.57
2023-04-20T01:54:06.870Z,5.22
2023-04-20T02:00:12.978Z,5.47
2023-04-20T02:06:16.399Z,6.35
2023-04-20T02:12:19.882Z,5.15
2023-04-20T02:18:24.836Z,5.00
2023-04-20T02:24:28.254Z,5.47
2023-04-20T02:30:31.810Z,5.18
2023-04-20T02:36:36.762Z,5.55
2023-04-20T02:42:40.273Z,6.53
2023-04-20T02:48:43.660Z,5.07
2023-04-20T02:54:48.758Z,4.40
2023-04-20T03:00:52.269Z,5.78
2023-04-20T03:06:55.922Z,7.32
2023-04-20T03:13:00.701Z,5.32
2023-04-20T03:19:04.785Z,4.50
2023-04-20T03:25:09.924Z,5.63
2023-04-20T03:31:14.787Z,3.47
2023-04-20T03:37:18.511Z,7.55
2023-04-20T03:43:21.899Z,6.78
2023-04-20T03:49:26.806Z,21.15
2023-04-20T03:55:30.213Z,29.92
2023-04-20T04:01:33.848Z,9.10
2023-04-20T04:07:38.772Z,6.35
2023-04-20T04:13:42.234Z,9.95
2023-04-20T04:19:45.765Z,4.97
2023-04-20T04:25:51.286Z,4.43
2023-04-20T04:31:54.916Z,5.82
2023-04-20T04:37:58.689Z,6.70
2023-04-20T04:44:03.618Z,7.18
2023-04-20T04:50:07.477Z,6.63
2023-04-20T04:56:11.478Z,6.25
2023-04-20T05:02:16.398Z,6.78
2023-04-20T05:08:20.124Z,5.70
2023-04-20T05:14:23.508Z,6.30
2023-04-20T05:20:28.398Z,6.13
2023-04-20T05:26:31.781Z,4.40
2023-04-20T05:32:35.255Z,5.85
2023-04-20T05:38:40.280Z,5.68
2023-04-20T05:44:44.713Z,7.13
2023-04-20T05:50:48.239Z,4.30
2023-04-20T05:56:53.282Z,5.97
2023-04-20T06:02:56.845Z,4.90
2023-04-20T06:09:00.840Z,5.10
2023-04-20T06:15:06.808Z,6.30
2023-04-20T06:21:11.579Z,8.93
2023-04-20T06:27:16.151Z,13.90
2023-04-20T06:33:20.934Z,8.40
2023-04-20T06:39:24.585Z,4.93
2023-04-20T06:45:28.053Z,7.10
2023-04-20T06:51:33.683Z,7.55
2023-04-20T06:57:38.573Z,4.30
2023-04-20T07:03:42.319Z,5.28
2023-04-20T07:09:47.420Z,6.43
2023-04-20T07:15:50.818Z,3.45
2023-04-20T07:21:54.503Z,4.80
2023-04-20T07:27:59.258Z,3.83
2023-04-20T07:34:02.649Z,4.05
2023-04-20T07:40:07.040Z,6.53
2023-04-20T07:46:12.345Z,7.32
2023-04-20T07:52:17.237Z,8.32
2023-04-20T07:58:21.690Z,9.13
2023-04-20T08:04:26.595Z,10.63
2023-04-20T08:10:30.180Z,10.23
2023-04-20T08:16:33.696Z,4.80
2023-04-20T08:22:38.534Z,6.75
2023-04-20T08:28:43.936Z,5.75
2023-04-20T08:34:47.325Z,6.53
2023-04-20T08:40:52.415Z,6.75
2023-04-20T08:46:55.992Z,8.35
2023-04-20T08:52:59.951Z,5.05
2023-04-20T08:59:05.487Z,6.80
2023-04-20T09:05:09.555Z,4.53
2023-04-20T09:11:23.338Z,6.90
2023-04-20T09:17:35.435Z,6.35
2023-04-20T09:23:39.122Z,6.28
2023-04-20T09:29:42.909Z,8.85
2023-04-20T09:35:48.052Z,5.43
2023-04-20T09:41:52.289Z,4.75
2023-04-20T09:47:56.959Z,7.45
2023-04-20T09:54:03.050Z,4.10
2023-04-20T10:00:08.027Z,7.05
2023-04-20T10:06:20.116Z,5.85
2023-04-20T10:12:24.846Z,4.88
2023-04-20T10:18:28.390Z,7.43
2023-04-20T10:24:32.226Z,6.35
2023-04-20T10:30:37.496Z,6.60
2023-04-20T10:36:41.743Z,4.93
2023-04-20T10:42:45.867Z,5.60
2023-04-20T10:48:58.724Z,4.50
2023-04-20T10:55:02.194Z,5.13
2023-04-20T11:01:08.512Z,4.60
2023-04-20T11:07:14.278Z,5.25
2023-04-20T11:13:25.848Z,6.97
2023-04-20T11:19:29.955Z,5.28
2023-04-20T11:25:34.799Z,4.85
2023-04-20T11:31:38.465Z,7.70
2023-04-20T11:37:48.925Z,7.18
2023-04-20T11:43:54.679Z,6.15
2023-04-20T11:49:58.256Z,7.53
2023-04-20T11:56:02.318Z,11.57
2023-04-20T12:02:07.155Z,7.80
2023-04-20T12:08:10.644Z,6.80
2023-04-20T12:14:14.120Z,7.60
2023-04-20T12:20:18.871Z,8.80
2023-04-20T12:26:27.072Z,7.20
2023-04-20T12:32:38.221Z,8.73
2023-04-20T12:38:43.436Z,6.30
2023-04-20T12:44:49.644Z,6.38
2023-04-20T12:50:53.192Z,7.68
2023-04-20T12:56:58.944Z,6.22
2023-04-20T13:03:02.589Z,5.97
2023-04-20T13:09:07.289Z,9.68
2023-04-20T13:15:13.697Z,6.03
2023-04-20T13:21:17.491Z,9.40
2023-04-20T13:27:20.891Z,5.70
2023-04-20T13:33:25.981Z,6.68
2023-04-20T13:39:29.591Z,8.00
2023-04-20T13:45:33.085Z,8.50
2023-04-20T13:51:38.080Z,9.25
2023-04-20T13:57:41.828Z,7.68
2023-04-20T14:03:45.944Z,9.20
2023-04-20T14:09:50.984Z,12.65
2023-04-20T14:15:54.877Z,10.68
2023-04-20T14:21:58.309Z,9.63
2023-04-20T14:28:03.105Z,8.48
2023-04-20T14:34:06.548Z,8.90
2023-04-20T14:40:10.615Z,10.13
2023-04-20T14:46:15.634Z,7.78
2023-04-20T14:52:19.057Z,7.40
2023-04-20T14:58:22.536Z,6.22
2023-04-20T15:04:27.534Z,6.25
2023-04-20T15:10:31.338Z,8.43
2023-04-20T15:16:35.035Z,6.65
2023-04-20T15:22:40.143Z,6.85
2023-04-20T15:28:43.672Z,12.70
2023-04-20T15:34:47.087Z,8.10
2023-04-20T15:40:53.866Z,6.65
2023-04-20T15:46:58.360Z,10.95
2023-04-20T15:53:01.782Z,7.45
2023-04-20T15:59:06.800Z,7.07
2023-04-20T16:05:10.413Z,6.38
2023-04-20T16:11:13.887Z,5.80
2023-04-20T16:17:18.655Z,7.22
2023-04-20T16:23:22.282Z,5.35
2023-04-20T16:29:25.738Z,6.68
2023-04-20T16:35:30.672Z,6.35
2023-04-20T16:41:34.084Z,7.60
2023-04-20T16:47:38.200Z,8.25
2023-04-20T16:53:43.004Z,9.52
2023-04-20T16:59:47.018Z,9.18
2023-04-20T17:05:51.102Z,7.13
2023-04-20T17:11:56.560Z,6.60
2023-04-20T17:18:00.113Z,5.57
2023-04-20T17:24:03.578Z,5.10
2023-04-20T17:30:09.087Z,5.32
2023-04-20T17:36:12.893Z,5.05
2023-04-20T17:42:16.330Z,4.10
2023-04-20T17:48:21.352Z,5.30
2023-04-20T17:54:24.815Z,5.65
2023-04-20T18:00:28.430Z,5.60
2023-04-20T18:06:33.864Z,6.57
2023-04-20T18:12:37.637Z,7.75
2023-04-20T18:18:41.124Z,7.35
2023-04-20T18:24:46.521Z,8.43
2023-04-20T18:30:49.993Z,9.02
2023-04-20T18:36:53.661Z,7.80
2023-04-20T18:42:58.418Z,11.93
2023-04-20T18:49:01.903Z,11.75
2023-04-20T18:55:05.457Z,12.15
2023-04-20T19:01:10.918Z,12.02
2023-04-20T19:07:14.504Z,11.40
2023-04-20T19:13:17.937Z,9.75
2023-04-20T19:19:22.746Z,10.68
2023-04-20T19:25:26.397Z,13.10
2023-04-20T19:31:36.624Z,11.45
2023-04-20T19:37:41.910Z,16.17
2023-04-20T19:43:45.326Z,17.60
2023-04-20T19:49:48.848Z,11.38
2023-04-20T19:55:53.643Z,12.73
2023-04-20T20:01:57.339Z,15.25
2023-04-20T20:08:00.785Z,11.57
2023-04-20T20:14:05.609Z,10.70
2023-04-20T20:20:09.645Z,13.57
2023-04-20T20:26:13.116Z,10.90
2023-04-20T20:32:17.905Z,13.88
2023-04-20T20:38:22.673Z,12.80
2023-04-20T20:44:28.050Z,12.52
2023-04-20T20:50:32.885Z,12.95
2023-04-20T20:56:36.552Z,12.95
2023-04-20T21:02:40.094Z,13.00
2023-04-20T21:08:45.426Z,14.40
2023-04-20T21:14:51.533Z,12.75
2023-04-20T21:20:55.121Z,13.23
2023-04-20T21:26:59.862Z,12.77
2023-04-20T21:33:03.353Z,12.88
2023-04-20T21:39:06.800Z,12.02
2023-04-20T21:45:12.337Z,13.43
2023-04-20T21:51:16.921Z,12.43
2023-04-20T21:57:20.540Z,12.98
2023-04-20T22:03:26.323Z,15.20
2023-04-20T22:09:30.204Z,14.10
2023-04-20T22:15:33.900Z,13.50
2023-04-20T22:21:38.663Z,13.77
2023-04-20T22:27:42.140Z,15.13
2023-04-20T22:33:45.563Z,13.55
2023-04-20T22:39:51.403Z,14.45
2023-04-20T22:45:55.089Z,15.23
2023-04-20T22:51:58.464Z,12.98
2023-04-20T22:58:03.279Z,12.75
2023-04-20T23:04:07.101Z,12.77
2023-04-20T23:10:11.815Z,13.57
2023-04-20T23:16:16.834Z,13.13
2023-04-20T23:22:20.266Z,16.88
2023-04-20T23:28:23.694Z,16.25
2023-04-20T23:34:28.470Z,14.02
2023-04-20T23:40:31.879Z,16.42
2023-04-20T23:46:35.462Z,15.50
2023-04-20T23:52:41.105Z,14.95
2023-04-20T23:58:44.739Z,18.20
